createdAt,value
2018-07-08T00:01:22.325Z,14.80
2018-07-08T00:03:50.743Z,14.70
2018-07-08T00:06:19.113Z,14.60
2018-07-08T00:08:47.505Z,14.40
2018-07-08T00:11:15.892Z,14.40
2018-07-08T00:13:44.272Z,14.40
2018-07-08T00:16:12.671Z,14.40
2018-07-08T00:18:41.080Z,14.30
2018-07-08T00:21:09.449Z,14.30
2018-07-08T00:23:37.805Z,14.20
2018-07-08T00:26:06.168Z,14.10
2018-07-08T00:28:34.557Z,14.00
2018-07-08T00:31:02.988Z,14.00
2018-07-08T00:33:31.413Z,14.00
2018-07-08T00:35:59.754Z,13.90
2018-07-08T00:38:28.067Z,13.90
2018-07-08T00:43:24.478Z,13.80
2018-07-08T00:45:52.771Z,13.70
2018-07-08T00:48:21.138Z,13.70
2018-07-08T00:50:49.492Z,13.70
2018-07-08T00:53:17.885Z,13.70
2018-07-08T00:55:46.309Z,13.70
2018-07-08T00:58:14.634Z,13.70
2018-07-08T01:00:43.105Z,13.60
2018-07-08T01:03:11.580Z,13.60
2018-07-08T01:05:39.921Z,13.50
2018-07-08T01:08:08.406Z,13.40
2018-07-08T01:10:36.841Z,13.40
2018-07-08T01:13:05.235Z,13.60
2018-07-08T01:15:33.598Z,13.50
2018-07-08T01:18:01.967Z,13.50
2018-07-08T01:20:30.299Z,13.60
2018-07-08T01:22:58.679Z,13.60
2018-07-08T01:25:38.217Z,13.50
2018-07-08T01:28:06.588Z,13.40
2018-07-08T01:30:34.993Z,13.30
2018-07-08T01:33:03.357Z,13.30
2018-07-08T01:35:31.765Z,13.20
2018-07-08T01:38:00.162Z,13.20
2018-07-08T01:40:28.554Z,13.10
2018-07-08T01:42:56.921Z,13.00
2018-07-08T01:45:25.320Z,13.00
2018-07-08T01:47:53.642Z,12.90
2018-07-08T01:50:22.048Z,12.90
2018-07-08T01:52:50.454Z,12.90
2018-07-08T01:55:18.830Z,12.80
2018-07-08T01:57:47.175Z,12.80
2018-07-08T02:00:15.532Z,12.80
2018-07-08T02:02:43.886Z,12.80
2018-07-08T02:05:12.295Z,12.70
2018-07-08T02:07:40.650Z,12.60
2018-07-08T02:10:08.997Z,12.60
2018-07-08T02:12:37.405Z,12.60
2018-07-08T02:15:06.102Z,12.60
2018-07-08T02:17:34.430Z,12.50
2018-07-08T02:20:02.798Z,12.50
2018-07-08T02:22:31.089Z,12.40
2018-07-08T02:24:59.544Z,12.40
2018-07-08T02:27:27.905Z,12.40
2018-07-08T02:29:56.226Z,12.40
2018-07-08T02:32:24.528Z,12.30
2018-07-08T02:34:53.013Z,12.20
2018-07-08T02:37:21.354Z,12.10
2018-07-08T02:39:49.727Z,12.10
2018-07-08T02:42:18.119Z,12.00
2018-07-08T02:44:46.494Z,11.90
2018-07-08T02:47:14.816Z,12.00
2018-07-08T02:49:43.222Z,12.00
2018-07-08T02:52:11.633Z,12.10
2018-07-08T02:54:39.984Z,12.30
2018-07-08T02:57:08.322Z,12.50
2018-07-08T02:59:36.696Z,12.60
2018-07-08T03:02:05.072Z,12.60
2018-07-08T03:09:29.502Z,12.40
2018-07-08T03:11:57.856Z,12.20
2018-07-08T03:14:26.299Z,12.10
2018-07-08T03:16:54.632Z,12.10
2018-07-08T03:19:23.103Z,12.00
2018-07-08T03:21:51.782Z,12.00
2018-07-08T03:24:20.287Z,12.00
2018-07-08T03:31:44.860Z,11.90
2018-07-08T03:34:13.273Z,12.00
2018-07-08T03:36:41.631Z,12.00
2018-07-08T03:39:10.670Z,12.00
2018-07-08T03:41:38.951Z,12.00
2018-07-08T03:44:08.105Z,12.10
2018-07-08T03:46:36.919Z,12.20
2018-07-08T03:49:05.290Z,12.20
2018-07-08T03:51:33.625Z,12.00
2018-07-08T03:54:01.970Z,11.90
2018-07-08T03:56:30.330Z,11.80
2018-07-08T03:58:58.761Z,11.70
2018-07-08T04:01:27.097Z,11.60
2018-07-08T04:03:55.510Z,11.50
2018-07-08T04:06:23.850Z,11.50
2018-07-08T04:08:52.212Z,11.40
2018-07-08T04:11:20.558Z,11.50
2018-07-08T04:13:48.986Z,11.60
2018-07-08T04:16:17.398Z,11.60
2018-07-08T04:18:45.794Z,11.70
2018-07-08T04:21:14.106Z,11.80
2018-07-08T04:23:42.496Z,11.90
2018-07-08T04:26:10.843Z,11.90
2018-07-08T04:28:39.207Z,12.10
2018-07-08T04:31:07.594Z,12.30
2018-07-08T04:33:35.934Z,12.30
2018-07-08T04:36:04.289Z,12.40
2018-07-08T04:41:00.697Z,12.40
2018-07-08T04:43:29.105Z,12.30
2018-07-08T04:45:57.495Z,12.20
2018-07-08T04:48:25.855Z,12.30
2018-07-08T04:50:54.257Z,12.50
2018-07-08T04:53:22.615Z,12.60
2018-07-08T04:55:50.972Z,12.80
2018-07-08T04:58:19.345Z,12.90
2018-07-08T05:00:47.713Z,13.20
2018-07-08T05:03:16.074Z,13.40
2018-07-08T05:05:44.473Z,13.60
2018-07-08T05:08:13.415Z,13.60
2018-07-08T05:10:41.754Z,13.90
2018-07-08T05:13:10.074Z,14.10
2018-07-08T05:23:02.574Z,14.60
2018-07-08T05:25:30.906Z,14.70
2018-07-08T05:27:59.261Z,14.90
2018-07-08T05:30:27.647Z,15.00
2018-07-08T05:32:56.062Z,15.20
2018-07-08T05:35:24.441Z,15.40
2018-07-08T05:37:53.177Z,15.60
2018-07-08T05:40:21.572Z,15.70
2018-07-08T05:42:49.939Z,15.90
2018-07-08T05:45:18.272Z,16.20
2018-07-08T05:47:46.638Z,16.50
2018-07-08T05:50:15.042Z,16.60
2018-07-08T05:52:43.443Z,16.90
2018-07-08T05:55:11.870Z,17.10
2018-07-08T05:57:40.260Z,17.30
2018-07-08T06:00:08.803Z,17.60
2018-07-08T06:02:37.300Z,17.90
2018-07-08T06:05:05.717Z,18.10
2018-07-08T06:07:34.112Z,18.50
2018-07-08T06:10:02.495Z,18.80
2018-07-08T06:12:30.836Z,19.00
2018-07-08T06:14:59.162Z,19.20
2018-07-08T06:17:27.560Z,19.20
2018-07-08T06:19:56.066Z,19.00
2018-07-08T06:22:24.511Z,19.00
2018-07-08T06:24:52.841Z,19.20
2018-07-08T06:27:21.230Z,19.50
2018-07-08T06:32:17.670Z,19.50
2018-07-08T06:34:46.021Z,20.10
2018-07-08T06:37:14.423Z,20.50
2018-07-08T06:39:42.765Z,20.50
2018-07-08T06:42:11.192Z,20.90
2018-07-08T06:44:39.617Z,21.10
2018-07-08T06:47:08.008Z,20.70
2018-07-08T06:49:36.422Z,20.50
2018-07-08T06:52:05.374Z,20.90
2018-07-08T06:54:33.946Z,20.80
2018-07-08T06:57:02.677Z,21.00
2018-07-08T06:59:31.105Z,21.40
2018-07-08T07:01:59.498Z,21.70
2018-07-08T07:04:27.896Z,22.10
2018-07-08T07:06:56.325Z,22.70
2018-07-08T07:09:24.676Z,23.00
2018-07-08T07:11:53.037Z,23.10
2018-07-08T07:14:21.426Z,21.90
2018-07-08T07:16:49.802Z,23.90
2018-07-08T07:19:18.160Z,24.10
2018-07-08T07:21:46.511Z,24.00
2018-07-08T07:24:14.951Z,23.60
2018-07-08T07:26:43.282Z,23.20
2018-07-08T07:29:11.656Z,23.00
2018-07-08T07:31:40.116Z,23.60
2018-07-08T07:34:38.996Z,24.20
2018-07-08T07:37:08.469Z,24.20
2018-07-08T07:39:36.808Z,23.50
2018-07-08T07:42:06.876Z,23.30
2018-07-08T07:44:35.383Z,23.20
2018-07-08T07:47:04.022Z,23.10
2018-07-08T07:49:34.094Z,23.20
2018-07-08T07:52:02.519Z,23.50
2018-07-08T07:54:30.883Z,23.70
2018-07-08T07:56:59.276Z,23.90
2018-07-08T07:59:27.768Z,24.30
2018-07-08T08:01:56.218Z,24.80
2018-07-08T08:04:27.964Z,25.20
2018-07-08T08:06:56.805Z,24.90
2018-07-08T08:09:25.492Z,24.50
2018-07-08T08:11:53.936Z,24.40
2018-07-08T08:14:22.363Z,24.20
2018-07-08T08:16:58.247Z,24.10
2018-07-08T08:19:27.524Z,24.30
2018-07-08T08:21:59.989Z,24.70
2018-07-08T08:24:28.531Z,24.70
2018-07-08T08:27:02.726Z,24.60
2018-07-08T08:29:36.265Z,24.60
2018-07-08T08:32:05.816Z,24.00
2018-07-08T08:35:25.027Z,24.20
2018-07-08T08:37:54.660Z,24.20
2018-07-08T08:42:52.462Z,23.60
2018-07-08T08:45:24.538Z,23.80
2018-07-08T08:47:56.497Z,23.50
2018-07-08T08:50:25.112Z,23.60
2018-07-08T08:52:53.499Z,23.50
2018-07-08T08:55:22.067Z,23.90
2018-07-08T08:57:52.454Z,23.70
2018-07-08T09:00:21.451Z,23.80
2018-07-08T09:02:49.965Z,23.50
2018-07-08T09:05:27.970Z,23.70
2018-07-08T09:07:56.434Z,23.60
2018-07-08T09:10:24.820Z,23.30
2018-07-08T09:12:53.241Z,23.10
2018-07-08T09:15:21.694Z,23.00
2018-07-08T09:17:50.124Z,22.80
2018-07-08T09:20:18.804Z,23.30
2018-07-08T09:22:47.241Z,23.20
2018-07-08T09:25:15.624Z,23.40
2018-07-08T09:27:44.023Z,23.60
2018-07-08T09:30:12.415Z,23.70
2018-07-08T09:32:40.779Z,24.00
2018-07-08T09:35:09.219Z,23.90
2018-07-08T09:37:37.676Z,24.10
2018-07-08T09:40:06.101Z,23.50
2018-07-08T09:42:34.485Z,23.50
2018-07-08T09:45:02.908Z,23.50
2018-07-08T09:47:31.292Z,23.60
2018-07-08T09:49:59.844Z,23.50
2018-07-08T09:52:28.264Z,23.70
2018-07-08T09:54:56.709Z,24.00
2018-07-08T09:57:25.171Z,24.30
2018-07-08T09:59:53.597Z,24.40
2018-07-08T10:02:22.070Z,24.20
2018-07-08T10:04:50.506Z,24.20
2018-07-08T10:07:18.890Z,24.30
2018-07-08T10:09:47.280Z,24.10
2018-07-08T10:12:15.640Z,24.20
2018-07-08T10:14:44.042Z,24.00
2018-07-08T10:17:12.407Z,24.00
2018-07-08T10:19:40.920Z,24.10
2018-07-08T10:22:09.224Z,24.20
2018-07-08T10:27:16.917Z,24.50
2018-07-08T10:29:45.297Z,24.60
2018-07-08T10:34:42.765Z,24.70
2018-07-08T10:37:11.135Z,24.70
2018-07-08T10:39:43.072Z,24.20
2018-07-08T10:42:12.266Z,24.30
2018-07-08T10:44:43.442Z,24.20
2018-07-08T10:47:16.443Z,24.70
2018-07-08T10:49:44.843Z,25.00
2018-07-08T10:52:13.318Z,24.30
2018-07-08T10:54:46.955Z,24.30
2018-07-08T10:57:17.840Z,24.30
2018-07-08T10:59:52.220Z,24.40
2018-07-08T11:02:20.974Z,24.70
2018-07-08T11:04:50.436Z,24.90
2018-07-08T11:07:18.883Z,24.60
2018-07-08T11:09:47.291Z,24.90
2018-07-08T11:12:15.767Z,25.00
2018-07-08T11:14:44.217Z,25.00
2018-07-08T11:17:13.224Z,25.10
2018-07-08T11:19:41.655Z,25.00
2018-07-08T11:22:10.090Z,25.00
2018-07-08T11:24:38.470Z,25.40
2018-07-08T11:27:07.042Z,25.40
2018-07-08T11:29:35.408Z,24.90
2018-07-08T11:32:03.839Z,25.20
2018-07-08T11:34:32.283Z,25.60
2018-07-08T11:37:00.698Z,25.50
2018-07-08T11:39:29.079Z,25.40
2018-07-08T11:41:57.589Z,25.30
2018-07-08T11:44:27.018Z,25.60
2018-07-08T11:46:55.401Z,25.30
2018-07-08T11:49:23.820Z,25.10
2018-07-08T11:51:52.241Z,25.00
2018-07-08T11:54:20.691Z,25.50
2018-07-08T11:56:49.136Z,25.60
2018-07-08T11:59:17.537Z,25.50
2018-07-08T12:01:45.993Z,26.10
2018-07-08T12:04:14.429Z,26.70
2018-07-08T12:06:42.908Z,27.10
2018-07-08T12:09:11.331Z,26.40
2018-07-08T12:11:39.795Z,27.10
2018-07-08T12:14:08.216Z,27.20
2018-07-08T12:16:36.580Z,27.40
2018-07-08T12:19:05.044Z,27.60
2018-07-08T12:21:33.509Z,27.80
2018-07-08T12:24:01.886Z,27.30
2018-07-08T12:26:30.653Z,27.30
2018-07-08T12:28:59.039Z,27.60
2018-07-08T12:31:27.426Z,27.90
2018-07-08T12:33:55.808Z,28.20
2018-07-08T12:36:24.179Z,28.90
2018-07-08T12:38:52.613Z,29.50
2018-07-08T12:41:21.018Z,29.20
2018-07-08T12:43:49.518Z,29.30
2018-07-08T12:46:17.925Z,28.80
2018-07-08T12:48:46.315Z,27.90
2018-07-08T12:51:14.707Z,28.10
2018-07-08T12:53:43.051Z,28.30
2018-07-08T12:56:11.611Z,27.80
2018-07-08T12:58:40.078Z,28.20
2018-07-08T13:01:08.472Z,28.80
2018-07-08T13:03:36.955Z,28.40
2018-07-08T13:08:33.490Z,28.90
2018-07-08T13:13:29.991Z,28.80
2018-07-08T13:15:58.450Z,29.10
2018-07-08T13:18:26.863Z,28.50
2018-07-08T13:20:55.226Z,28.10
2018-07-08T13:23:23.657Z,27.80
2018-07-08T13:25:52.251Z,28.40
2018-07-08T13:28:20.798Z,28.20
2018-07-08T13:30:49.171Z,28.10
2018-07-08T13:33:17.822Z,29.10
2018-07-08T13:35:46.442Z,30.00
2018-07-08T13:38:14.910Z,30.60
2018-07-08T13:40:43.353Z,30.20
2018-07-08T13:43:12.299Z,28.90
2018-07-08T13:45:40.720Z,30.00
2018-07-08T13:48:09.651Z,29.40
2018-07-08T13:50:38.051Z,30.00
2018-07-08T13:53:06.448Z,31.00
2018-07-08T13:55:34.926Z,31.20
2018-07-08T13:58:03.305Z,31.60
2018-07-08T14:02:59.873Z,30.70
2018-07-08T14:05:28.305Z,31.00
2018-07-08T14:07:57.026Z,30.90
2018-07-08T14:10:25.622Z,31.80
2018-07-08T14:12:54.262Z,31.80
2018-07-08T14:15:25.662Z,32.30
2018-07-08T14:17:54.295Z,32.20
2018-07-08T14:20:23.199Z,32.30
2018-07-08T14:22:52.120Z,32.20
2018-07-08T14:25:21.465Z,32.10
2018-07-08T14:27:50.864Z,31.70
2018-07-08T14:30:21.160Z,31.60
2018-07-08T14:32:51.393Z,31.10
2018-07-08T14:35:22.004Z,30.30
2018-07-08T14:37:50.431Z,31.10
2018-07-08T14:40:18.830Z,31.00
2018-07-08T14:42:47.227Z,31.40
2018-07-08T14:45:15.942Z,31.50
2018-07-08T14:47:45.113Z,30.70
2018-07-08T14:52:41.844Z,30.60
2018-07-08T14:55:12.415Z,31.20
2018-07-08T14:57:40.788Z,32.00
2018-07-08T15:00:12.077Z,32.90
2018-07-08T15:02:40.709Z,32.60
2018-07-08T15:05:13.877Z,32.40
2018-07-08T15:07:42.399Z,31.30
2018-07-08T15:10:11.046Z,31.60
2018-07-08T15:12:39.646Z,30.20
2018-07-08T15:15:08.416Z,30.10
2018-07-08T15:17:37.042Z,29.10
2018-07-08T15:20:10.133Z,29.50
2018-07-08T15:22:38.717Z,30.90
2018-07-08T15:25:07.277Z,30.90
2018-07-08T15:27:36.082Z,32.00
2018-07-08T15:30:04.934Z,32.00
2018-07-08T15:32:33.680Z,31.30
2018-07-08T15:35:03.154Z,31.20
2018-07-08T15:37:34.510Z,31.80
2018-07-08T15:40:03.386Z,32.60
2018-07-08T15:42:34.051Z,33.20
2018-07-08T15:45:02.827Z,33.00
2018-07-08T15:47:31.630Z,32.10
2018-07-08T15:50:00.471Z,30.90
2018-07-08T15:52:29.538Z,30.10
2018-07-08T15:54:58.292Z,30.90
2018-07-08T15:57:29.220Z,31.40
2018-07-08T15:59:58.042Z,31.70
2018-07-08T16:02:28.574Z,30.50
2018-07-08T16:04:57.554Z,31.20
2018-07-08T16:07:28.170Z,31.70
2018-07-08T16:09:58.261Z,32.00
2018-07-08T16:12:26.817Z,32.60
2018-07-08T16:15:02.625Z,32.80
2018-07-08T16:17:31.157Z,32.50
2018-07-08T16:20:03.297Z,32.30
2018-07-08T16:22:31.837Z,32.40
2018-07-08T16:25:03.642Z,32.60
2018-07-08T16:27:33.727Z,32.50
2018-07-08T16:30:02.141Z,31.80
2018-07-08T16:32:30.557Z,30.70
2018-07-08T16:35:00.283Z,29.30
2018-07-08T16:37:28.669Z,29.60
2018-07-08T16:39:57.555Z,30.70
2018-07-08T16:42:26.009Z,31.40
2018-07-08T16:44:57.047Z,31.60
2018-07-08T16:47:27.500Z,31.50
2018-07-08T16:49:57.049Z,29.90
2018-07-08T16:52:25.487Z,29.00
2018-07-08T16:54:54.052Z,28.30
2018-07-08T16:57:22.437Z,28.10
2018-07-08T17:02:18.914Z,28.60
2018-07-08T17:04:47.239Z,27.80
2018-07-08T17:07:16.432Z,28.00
2018-07-08T17:09:45.051Z,27.80
2018-07-08T17:12:13.607Z,27.80
2018-07-08T17:14:42.079Z,27.70
2018-07-08T17:17:10.754Z,27.20
2018-07-08T17:19:42.679Z,27.20
2018-07-08T17:22:14.476Z,27.00
2018-07-08T17:24:42.983Z,26.90
2018-07-08T17:27:11.431Z,27.30
2018-07-08T17:29:41.916Z,27.30
2018-07-08T17:32:14.706Z,27.10
2018-07-08T17:34:46.507Z,26.60
2018-07-08T17:37:17.780Z,26.00
2018-07-08T17:39:49.108Z,25.30
2018-07-08T17:44:45.562Z,24.50
2018-07-08T17:47:14.105Z,24.30
2018-07-08T17:49:42.574Z,24.10
2018-07-08T17:52:10.999Z,24.00
2018-07-08T17:54:39.484Z,23.90
2018-07-08T17:57:07.876Z,23.60
2018-07-08T17:59:36.413Z,23.40
2018-07-08T18:02:05.021Z,23.30
2018-07-08T18:04:38.475Z,23.10
2018-07-08T18:07:10.146Z,23.10
2018-07-08T18:09:39.782Z,23.10
2018-07-08T18:12:10.047Z,23.10
2018-07-08T18:14:39.947Z,23.00
2018-07-08T18:17:09.162Z,23.10
2018-07-08T18:19:40.587Z,23.10
2018-07-08T18:22:09.790Z,23.10
2018-07-08T18:24:39.001Z,23.10
2018-07-08T18:27:10.966Z,23.00
2018-07-08T18:29:41.137Z,23.00
2018-07-08T18:32:12.113Z,22.80
2018-07-08T18:34:40.948Z,22.80
2018-07-08T18:37:09.658Z,22.60
2018-07-08T18:39:39.360Z,22.70
2018-07-08T18:42:09.791Z,22.60
2018-07-08T18:44:39.722Z,22.60
2018-07-08T18:47:09.653Z,22.40
2018-07-08T18:49:40.017Z,22.30
2018-07-08T18:52:10.096Z,22.20
2018-07-08T18:54:38.489Z,22.10
2018-07-08T18:57:07.754Z,22.00
2018-07-08T19:00:10.915Z,21.90
2018-07-08T19:02:39.408Z,21.80
2018-07-08T19:05:07.919Z,21.70
2018-07-08T19:07:36.375Z,21.50
2018-07-08T19:10:04.803Z,21.40
2018-07-08T19:12:33.253Z,21.40
2018-07-08T19:15:01.691Z,21.30
2018-07-08T19:17:30.105Z,21.20
2018-07-08T19:19:58.495Z,21.00
2018-07-08T19:22:26.881Z,21.00
2018-07-08T19:24:55.968Z,20.90
2018-07-08T19:27:24.361Z,20.80
2018-07-08T19:29:52.805Z,20.70
2018-07-08T19:32:21.322Z,20.60
2018-07-08T19:34:49.929Z,20.60
2018-07-08T19:37:18.332Z,20.50
2018-07-08T19:39:46.724Z,20.50
2018-07-08T19:42:15.082Z,20.50
2018-07-08T19:44:43.500Z,20.30
2018-07-08T19:47:12.696Z,20.20
2018-07-08T19:49:41.239Z,20.20
2018-07-08T19:52:09.747Z,20.10
2018-07-08T19:54:38.117Z,20.10
2018-07-08T19:57:06.493Z,19.90
2018-07-08T19:59:34.899Z,19.90
2018-07-08T20:02:03.349Z,19.80
2018-07-08T20:04:31.828Z,19.70
2018-07-08T20:07:00.323Z,19.70
2018-07-08T20:09:28.825Z,19.60
2018-07-08T20:11:59.635Z,19.60
2018-07-08T20:14:29.593Z,19.40
2018-07-08T20:16:59.255Z,19.40
2018-07-08T20:19:29.788Z,19.30
2018-07-08T20:21:58.935Z,19.30
2018-07-08T20:24:29.460Z,19.20
2018-07-08T20:26:59.740Z,19.10
2018-07-08T20:29:29.505Z,19.00
2018-07-08T20:31:58.941Z,18.90
2018-07-08T20:34:28.521Z,18.90
2018-07-08T20:36:58.088Z,18.90
2018-07-08T20:39:27.437Z,18.80
2018-07-08T20:41:57.859Z,18.80
2018-07-08T20:44:26.360Z,18.80
2018-07-08T20:46:54.765Z,18.80
2018-07-08T20:49:23.625Z,18.70
2018-07-08T20:51:52.101Z,18.50
2018-07-08T20:54:20.494Z,18.30
2018-07-08T20:56:49.641Z,18.20
2018-07-08T20:59:18.182Z,18.00
2018-07-08T21:01:46.637Z,17.80
2018-07-08T21:04:15.034Z,17.60
2018-07-08T21:06:43.452Z,17.50
2018-07-08T21:09:11.847Z,17.50
2018-07-08T21:11:40.214Z,17.40
2018-07-08T21:14:08.687Z,17.40
2018-07-08T21:16:37.124Z,17.30
2018-07-08T21:19:05.763Z,17.00
2018-07-08T21:21:34.121Z,16.80
2018-07-08T21:24:03.186Z,16.70
2018-07-08T21:26:31.588Z,16.70
2018-07-08T21:28:59.974Z,16.70
2018-07-08T21:31:28.396Z,16.80
2018-07-08T21:33:56.871Z,16.80
2018-07-08T21:36:25.292Z,17.00
2018-07-08T21:38:53.650Z,16.80
2018-07-08T21:41:22.020Z,16.90
2018-07-08T21:43:51.033Z,16.80
2018-07-08T21:46:19.775Z,16.90
2018-07-08T21:48:48.181Z,16.90
2018-07-08T21:51:16.850Z,16.90
2018-07-08T21:53:45.311Z,16.80
2018-07-08T21:56:14.436Z,16.80
2018-07-08T21:58:43.370Z,16.70
2018-07-08T22:01:15.939Z,16.60
2018-07-08T22:03:45.131Z,16.40
2018-07-08T22:06:14.280Z,16.40
2018-07-08T22:08:42.714Z,16.20
2018-07-08T22:11:11.291Z,16.10
2018-07-08T22:13:40.257Z,16.20
2018-07-08T22:16:08.564Z,16.20
2018-07-08T22:18:37.231Z,16.10
2018-07-08T22:21:06.232Z,15.90
2018-07-08T22:23:35.117Z,15.80
2018-07-08T22:26:03.884Z,15.80
2018-07-08T22:28:33.112Z,15.70
2018-07-08T22:31:01.806Z,15.70
2018-07-08T22:33:30.181Z,15.60
2018-07-08T22:35:58.520Z,15.60
2018-07-08T22:38:26.914Z,15.50
2018-07-08T22:40:55.331Z,15.40
2018-07-08T22:45:53.873Z,15.20
2018-07-08T22:48:22.374Z,15.10
2018-07-08T22:50:50.789Z,14.90
2018-07-08T22:53:19.262Z,14.80
2018-07-08T22:55:47.654Z,14.80
2018-07-08T22:58:15.998Z,14.80
2018-07-08T23:00:55.780Z,14.70
2018-07-08T23:03:55.949Z,14.70
2018-07-08T23:06:24.281Z,14.50
2018-07-08T23:08:53.118Z,14.40
2018-07-08T23:11:22.129Z,14.40
2018-07-08T23:13:51.747Z,14.30
2018-07-08T23:18:48.574Z,14.20
2018-07-08T23:21:16.962Z,14.20
2018-07-08T23:23:45.423Z,14.30
2018-07-08T23:26:13.822Z,14.30
2018-07-08T23:28:42.157Z,14.30
2018-07-08T23:31:10.905Z,14.20
2018-07-08T23:33:39.269Z,14.20
2018-07-08T23:36:08.282Z,14.20
2018-07-08T23:38:36.756Z,14.10
2018-07-08T23:41:06.257Z,14.10
2018-07-08T23:43:34.750Z,14.10
2018-07-08T23:46:03.500Z,12.30
2018-07-08T23:48:32.544Z,13.90
2018-07-08T23:51:00.900Z,13.90
2018-07-08T23:53:29.478Z,13.70
2018-07-08T23:55:57.908Z,13.60
2018-07-08T23:58:26.180Z,13.60
